Time;durP1;ratioP1;P1;durP2;ratioP2;P2;SDS_P1;SDS_P2;PMS_P1;PMS_P2;Temp;Humidity;BMP_temperature;BMP_pressure;BME280_temperature;BME280_humidity;BME280_pressure;Samples;Min_cycle;Max_cycle;Signal;HPM_P1;HPM_P2
2020/12/01 00:01:10;;;;;;;28.00;21.03;;;;;;;-2.20;97.49;98269.53;4962625;28;20675;-69
2020/12/01 00:03:39;;;;;;;23.07;18.83;;;;;;;-2.36;98.57;98272.91;4958334;28;20658;-70
2020/12/01 00:06:07;;;;;;;25.70;19.90;;;;;;;-2.13;96.48;98257.94;4971672;28;20807;-68
2020/12/01 00:08:35;;;;;;;23.27;19.17;;;;;;;-2.26;96.72;98260.31;4937087;28;20483;-70
2020/12/01 00:11:02;;;;;;;26.13;20.63;;;;;;;-2.27;97.79;98260.38;4967710;28;20809;-70
2020/12/01 00:13:29;;;;;;;23.73;20.23;;;;;;;-2.23;96.92;98264.50;4958569;28;21178;-69
2020/12/01 00:15:55;;;;;;;23.17;18.63;;;;;;;-2.15;97.14;98253.75;4963899;28;20438;-68
2020/12/01 00:18:23;;;;;;;22.00;18.37;;;;;;;-2.22;96.62;98258.41;4956864;28;20717;-67
2020/12/01 00:20:50;;;;;;;25.67;21.20;;;;;;;-2.21;98.24;98254.88;4969921;28;20445;-69
2020/12/01 00:23:18;;;;;;;26.57;20.23;;;;;;;-2.05;97.59;98260.16;4938406;28;20448;-67
2020/12/01 00:25:46;;;;;;;24.70;21.23;;;;;;;-2.05;95.89;98260.16;4966863;28;20663;-70
2020/12/01 00:28:14;;;;;;;24.70;20.37;;;;;;;-2.01;96.13;98259.06;4949966;28;20453;-68
2020/12/01 00:30:42;;;;;;;24.27;19.23;;;;;;;-2.06;96.27;98243.75;4963451;28;20228;-70
2020/12/01 00:33:10;;;;;;;23.47;19.57;;;;;;;-2.07;97.56;98246.41;4965135;28;20488;-68
2020/12/01 00:35:37;;;;;;;22.33;19.40;;;;;;;-2.01;97.36;98246.09;4962629;28;20332;-69
2020/12/01 00:38:04;;;;;;;24.83;20.27;;;;;;;-1.95;97.42;98243.16;4965173;28;20288;-68
2020/12/01 00:40:33;;;;;;;24.77;19.77;;;;;;;-2.02;98.56;98236.59;4945063;28;21159;-69
2020/12/01 00:43:00;;;;;;;24.57;20.43;;;;;;;-1.99;98.94;98230.44;4938876;28;20480;-70
2020/12/01 00:45:27;;;;;;;21.37;18.83;;;;;;;-2.20;100.00;98231.44;4967546;28;20484;-68
2020/12/01 00:47:54;;;;;;;24.60;20.67;;;;;;;-2.07;100.00;98226.47;4971538;28;20320;-70
2020/12/01 00:50:22;;;;;;;25.30;19.37;;;;;;;-2.04;100.00;98226.31;4962180;28;20739;-69
2020/12/01 00:52:50;;;;;;;24.37;20.03;;;;;;;-2.14;100.00;98221.66;4973523;28;20703;-69
2020/12/01 00:55:17;;;;;;;23.53;19.37;;;;;;;-2.13;100.00;98216.38;4936276;28;21019;-69
2020/12/01 00:57:45;;;;;;;26.87;20.60;;;;;;;-2.29;100.00;98215.50;4953479;28;20702;-70
2020/12/01 01:00:15;;;;;;;26.53;20.67;;;;;;;-2.30;100.00;98224.19;4974482;28;20453;-68
2020/12/01 01:02:42;;;;;;;27.73;20.97;;;;;;;-2.16;100.00;98218.31;4969874;28;20766;-67
2020/12/01 01:05:09;;;;;;;25.80;21.30;;;;;;;-2.22;100.00;98209.06;4960138;28;20480;-69
2020/12/01 01:07:36;;;;;;;24.67;19.30;;;;;;;-2.23;100.00;98203.03;4965432;28;20972;-68
2020/12/01 01:10:03;;;;;;;26.07;21.17;;;;;;;-2.24;100.00;98213.50;4932579;28;20477;-70
2020/12/01 01:12:30;;;;;;;24.23;19.83;;;;;;;-2.20;100.00;98192.50;4961188;28;20916;-68
2020/12/01 01:14:58;;;;;;;28.47;22.07;;;;;;;-2.47;100.00;98197.31;4963024;28;20488;-70
2020/12/01 01:17:25;;;;;;;26.47;20.90;;;;;;;-2.47;100.00;98195.56;4969537;28;20448;-67
2020/12/01 01:19:55;;;;;;;28.80;22.37;;;;;;;-2.29;100.00;98192.94;4971215;28;21032;-69
2020/12/01 01:22:22;;;;;;;25.87;21.00;;;;;;;-2.28;100.00;98180.81;4963145;28;20475;-70
2020/12/01 01:24:49;;;;;;;28.17;20.97;;;;;;;-2.31;100.00;98184.41;4930393;28;21066;-70
2020/12/01 01:27:20;;;;;;;27.53;21.13;;;;;;;-2.41;100.00;98181.47;4964947;28;20449;-69
2020/12/01 01:29:53;;;;;;;25.47;20.57;;;;;;;-2.30;100.00;98172.28;4953850;28;20987;-69
2020/12/01 01:32:20;;;;;;;24.23;19.33;;;;;;;-2.35;100.00;98169.91;4974248;28;20843;-70
2020/12/01 01:34:47;;;;;;;28.17;22.37;;;;;;;-2.40;100.00;98170.16;4963474;28;21091;-69
2020/12/01 01:37:14;;;;;;;30.27;21.47;;;;;;;-2.40;100.00;98154.59;4962884;28;20457;-68
2020/12/01 01:39:41;;;;;;;27.60;21.23;;;;;;;-2.30;100.00;98154.94;4925810;28;20453;-68
2020/12/01 01:42:10;;;;;;;27.90;21.57;;;;;;;-2.28;100.00;98147.91;4969358;28;20519;-69
2020/12/01 01:44:37;;;;;;;28.97;20.47;;;;;;;-2.34;100.00;98138.69;4955577;28;20507;-68
2020/12/01 01:47:16;;;;;;;28.50;21.97;;;;;;;-2.32;100.00;98138.59;4970931;28;20453;-70
2020/12/01 01:49:45;;;;;;;26.37;22.57;;;;;;;-2.35;100.00;98136.16;4967024;28;21074;-68
2020/12/01 01:52:15;;;;;;;28.50;22.20;;;;;;;-2.31;100.00;98134.25;4961340;28;20475;-70
2020/12/01 01:54:43;;;;;;;26.93;20.70;;;;;;;-2.41;100.00;98129.53;4965550;28;20540;-68
2020/12/01 01:57:10;;;;;;;30.40;21.73;;;;;;;-2.31;100.00;98129.06;4926037;28;20457;-70
2020/12/01 01:59:38;;;;;;;29.30;22.67;;;;;;;-2.43;100.00;98117.53;4955193;28;20463;-68
2020/12/01 02:02:05;;;;;;;29.07;21.17;;;;;;;-2.28;100.00;98111.56;4970084;28;20908;-69
2020/12/01 02:04:32;;;;;;;29.20;22.30;;;;;;;-2.42;100.00;98108.84;4973718;28;20296;-69
2020/12/01 02:07:03;;;;;;;30.73;21.97;;;;;;;-2.28;100.00;98105.53;4961928;28;20450;-69
2020/12/01 02:09:34;;;;;;;30.07;22.83;;;;;;;-2.32;100.00;98104.84;4968048;28;20460;-68
2020/12/01 02:12:03;;;;;;;28.40;21.57;;;;;;;-2.35;100.00;98105.84;4929487;28;20739;-69
2020/12/01 02:14:33;;;;;;;25.50;22.77;;;;;;;-2.26;100.00;98099.34;4963373;28;20494;-67
2020/12/01 02:17:16;;;;;;;27.90;21.97;;;;;;;-2.33;100.00;98093.63;4962371;28;20450;-69
2020/12/01 02:19:44;;;;;;;27.17;21.53;;;;;;;-2.36;100.00;98085.16;4967499;28;21006;-69
2020/12/01 02:22:15;;;;;;;27.83;21.60;;;;;;;-2.42;100.00;98090.69;4962865;28;20218;-70
2020/12/01 02:24:42;;;;;;;27.90;20.87;;;;;;;-2.24;100.00;98079.34;4964535;28;20993;-68
2020/12/01 02:27:13;;;;;;;29.20;22.57;;;;;;;-2.37;100.00;98079.16;4935657;28;20451;-70
2020/12/01 02:29:43;;;;;;;31.73;23.97;;;;;;;-2.21;100.00;98073.97;4950018;28;20476;-68
2020/12/01 02:32:10;;;;;;;29.30;22.83;;;;;;;-2.22;100.00;98074.91;4964549;28;20981;-69
2020/12/01 02:34:41;;;;;;;31.43;22.07;;;;;;;-2.22;100.00;98066.25;4963128;28;20491;-68
2020/12/01 02:37:09;;;;;;;28.13;21.60;;;;;;;-2.22;100.00;98069.72;4957573;28;20560;-69
2020/12/01 02:39:36;;;;;;;30.47;22.80;;;;;;;-2.21;100.00;98062.75;4963707;28;20460;-68
2020/12/01 02:42:07;;;;;;;30.50;22.80;;;;;;;-2.27;100.00;98057.88;4963500;28;20446;-69
2020/12/01 02:44:34;;;;;;;28.77;21.70;;;;;;;-2.16;100.00;98049.53;4935451;28;20472;-68
2020/12/01 02:47:04;;;;;;;34.40;22.80;;;;;;;-2.22;100.00;98053.28;4950494;28;20460;-70
2020/12/01 02:49:32;;;;;;;28.50;21.93;;;;;;;-2.14;100.00;98045.09;4964044;28;20457;-68
2020/12/01 02:51:59;;;;;;;29.20;22.87;;;;;;;-2.26;100.00;98044.84;4964487;28;21269;-69
2020/12/01 02:54:26;;;;;;;28.40;21.73;;;;;;;-2.16;100.00;98036.53;4954972;28;22184;-68
2020/12/01 02:56:53;;;;;;;29.63;22.47;;;;;;;-2.19;100.00;98037.53;4968474;28;20452;-69
2020/12/01 02:59:20;;;;;;;27.87;21.97;;;;;;;-2.09;100.00;98030.91;4934938;28;21072;-68
2020/12/01 03:01:48;;;;;;;29.37;22.70;;;;;;;-2.10;100.00;98029.22;4948647;28;20606;-69
2020/12/01 03:04:15;;;;;;;30.80;23.03;;;;;;;-2.08;100.00;98023.97;4964490;28;20460;-70
2020/12/01 03:06:43;;;;;;;30.37;22.30;;;;;;;-2.05;100.00;98019.47;4968441;28;20802;-69
2020/12/01 03:09:13;;;;;;;27.93;21.77;;;;;;;-2.07;100.00;98018.72;4961854;28;20476;-69
2020/12/01 03:11:41;;;;;;;30.77;24.50;;;;;;;-2.05;100.00;98022.06;4964042;28;21271;-69
2020/12/01 03:14:09;;;;;;;30.10;21.97;;;;;;;-2.14;100.00;98014.75;4931888;28;21329;-70
2020/12/01 03:16:36;;;;;;;28.40;22.53;;;;;;;-2.00;100.00;98007.97;4966753;28;20524;-69
2020/12/01 03:19:04;;;;;;;27.93;21.93;;;;;;;-2.09;100.00;98010.13;4952006;28;20452;-69
2020/12/01 03:21:31;;;;;;;29.40;22.57;;;;;;;-1.96;100.00;98007.72;4966805;28;20445;-68
2020/12/01 03:23:58;;;;;;;27.60;21.47;;;;;;;-2.04;100.00;98004.69;4957964;28;20476;-69
2020/12/01 03:26:25;;;;;;;29.00;21.73;;;;;;;-2.01;100.00;98004.53;4965900;28;20533;-68
2020/12/01 03:28:52;;;;;;;28.27;22.17;;;;;;;-2.11;100.00;97991.22;4971532;28;20451;-69
2020/12/01 03:31:21;;;;;;;29.50;23.23;;;;;;;-1.89;100.00;97990.03;4933449;28;20456;-69
2020/12/01 03:33:48;;;;;;;28.77;22.23;;;;;;;-1.99;100.00;97983.69;4949740;28;20488;-71
2020/12/01 03:36:17;;;;;;;30.97;22.30;;;;;;;-1.88;100.00;97986.50;4947268;28;20456;-69
2020/12/01 03:38:44;;;;;;;26.63;21.43;;;;;;;-1.94;100.00;97974.69;4967433;28;20821;-68
2020/12/01 03:41:11;;;;;;;28.73;22.43;;;;;;;-1.92;100.00;97964.22;4962496;28;20731;-69
2020/12/01 03:43:38;;;;;;;29.43;22.33;;;;;;;-1.95;100.00;97960.03;4970080;28;20457;-68
2020/12/01 03:46:05;;;;;;;31.40;22.70;;;;;;;-1.96;100.00;97957.53;4930562;28;20464;-68
2020/12/01 03:48:32;;;;;;;30.47;23.10;;;;;;;-1.93;100.00;97957.34;4956633;28;20477;-69
2020/12/01 03:50:59;;;;;;;32.13;22.87;;;;;;;-1.93;100.00;97957.34;4964072;28;21225;-70
2020/12/01 03:53:27;;;;;;;29.70;23.93;;;;;;;-1.96;100.00;97952.34;4966058;28;20468;-69
2020/12/01 03:55:54;;;;;;;30.40;22.67;;;;;;;-2.01;100.00;97949.16;4957824;28;20844;-68
2020/12/01 03:58:21;;;;;;;30.77;22.97;;;;;;;-1.96;100.00;97947.16;4971787;28;20433;-70
2020/12/01 04:00:48;;;;;;;31.87;23.77;;;;;;;-2.03;100.00;97936.25;4927456;28;20475;-67
2020/12/01 04:03:15;;;;;;;30.60;24.13;;;;;;;-2.06;100.00;97939.03;4965771;28;20453;-68
2020/12/01 04:05:42;;;;;;;32.17;23.77;;;;;;;-1.85;100.00;97929.19;4956814;28;20726;-67
2020/12/01 04:08:10;;;;;;;29.03;23.53;;;;;;;-1.86;100.00;97930.09;4965280;28;20602;-69
2020/12/01 04:10:38;;;;;;;30.03;23.47;;;;;;;-1.91;100.00;97922.56;4950655;28;20466;-67
2020/12/01 04:13:06;;;;;;;33.17;23.40;;;;;;;-1.87;100.00;97922.41;4966125;28;20727;-69
2020/12/01 04:15:33;;;;;;;31.77;24.80;;;;;;;-1.96;100.00;97918.56;4940100;28;21502;-69
2020/12/01 04:18:00;;;;;;;30.00;22.90;;;;;;;-1.80;100.00;97921.97;4966676;28;20464;-69
2020/12/01 04:20:27;;;;;;;30.43;23.47;;;;;;;-1.75;100.00;97917.31;4946078;28;20475;-67
2020/12/01 04:22:54;;;;;;;31.80;23.73;;;;;;;-1.82;100.00;97915.19;4962062;28;20954;-66
2020/12/01 04:25:24;;;;;;;32.47;23.13;;;;;;;-1.69;100.00;97910.13;4972795;28;20476;-69
2020/12/01 04:27:52;;;;;;;31.23;22.63;;;;;;;-1.77;100.00;97898.41;4955838;28;20647;-67
2020/12/01 04:30:20;;;;;;;32.37;24.73;;;;;;;-1.68;100.00;97906.59;4970521;28;20463;-69
2020/12/01 04:32:47;;;;;;;29.80;23.20;;;;;;;-1.82;100.00;97900.44;4931327;28;20827;-67
2020/12/01 04:35:15;;;;;;;33.27;23.97;;;;;;;-1.82;100.00;97904.81;4953721;28;20493;-68
2020/12/01 04:37:42;;;;;;;31.90;24.33;;;;;;;-1.68;100.00;97898.81;4974891;28;20837;-67
2020/12/01 04:40:09;;;;;;;35.03;25.33;;;;;;;-1.63;100.00;97891.59;4971880;28;20702;-69
2020/12/01 04:42:45;;;;;;;26.73;22.27;;;;;;;-1.73;100.00;97891.28;4964925;28;20340;-67
2020/12/01 04:45:13;;;;;;;30.50;23.63;;;;;;;-1.79;100.00;97892.44;4969250;28;20917;-69
2020/12/01 04:47:51;;;;;;;30.33;25.00;;;;;;;-1.79;100.00;97897.66;4929430;28;20464;-67
2020/12/01 04:50:23;;;;;;;31.13;23.77;;;;;;;-1.77;100.00;97895.78;4957493;28;20210;-68
2020/12/01 04:53:13;;;;;;;34.30;24.50;;;;;;;-1.64;100.00;97898.53;4958946;28;20552;-67
2020/12/01 04:56:13;;;;;;;33.57;25.17;;;;;;;-1.75;100.00;97893.94;4968731;28;20308;-68
2020/12/01 04:58:46;;;;;;;32.33;24.73;;;;;;;-1.64;100.00;97897.69;4936136;28;20460;-68
2020/12/01 05:01:16;;;;;;;50.33;39.37;;;;;;;-1.78;100.00;97901.09;4964345;28;20745;-68
2020/12/01 05:03:53;;;;;;;54.13;41.57;;;;;;;-1.87;100.00;97902.47;4931174;28;20472;-67
2020/12/01 05:06:44;;;;;;;41.87;31.27;;;;;;;-1.77;100.00;97905.38;4953212;28;20486;-68
2020/12/01 05:09:15;;;;;;;39.47;28.70;;;;;;;-1.63;100.00;97889.81;4967775;28;20456;-66
2020/12/01 05:11:45;;;;;;;38.83;26.77;;;;;;;-1.71;100.00;97896.38;4972872;28;20220;-65
2020/12/01 05:14:19;;;;;;;31.37;23.43;;;;;;;-1.65;100.00;97890.84;4956886;28;20442;-66
2020/12/01 05:16:51;;;;;;;32.57;24.50;;;;;;;-1.69;100.00;97889.34;4966715;28;21125;-65
2020/12/01 05:19:38;;;;;;;35.97;24.77;;;;;;;-1.54;100.00;97885.84;4935890;28;20459;-66
2020/12/01 05:22:05;;;;;;;35.80;26.07;;;;;;;-1.55;100.00;97888.50;4948052;28;20457;-66
2020/12/01 05:24:40;;;;;;;40.17;29.57;;;;;;;-1.55;100.00;97884.16;4971151;28;20471;-66
2020/12/01 05:27:19;;;;;;;34.93;25.37;;;;;;;-1.43;100.00;97885.22;4942028;28;20313;-66
2020/12/01 05:29:46;;;;;;;32.13;23.53;;;;;;;-1.51;100.00;97887.44;4956675;28;20483;-66
2020/12/01 05:32:24;;;;;;;32.00;23.63;;;;;;;-1.51;100.00;97880.44;4967075;28;20441;-66
2020/12/01 05:34:51;;;;;;;31.00;23.37;;;;;;;-1.33;100.00;97880.28;4933878;28;20938;-66
2020/12/01 05:37:18;;;;;;;36.83;24.30;;;;;;;-1.30;100.00;97872.31;4949587;28;20453;-65
2020/12/01 05:39:45;;;;;;;32.60;23.73;;;;;;;-1.27;100.00;97871.28;4973491;28;20800;-66
2020/12/01 05:42:17;;;;;;;32.80;24.37;;;;;;;-1.31;100.00;97873.25;4968210;28;20456;-66
2020/12/01 05:44:55;;;;;;;33.87;25.23;;;;;;;-1.33;100.00;97875.06;4946977;28;20996;-67
2020/12/01 05:47:27;;;;;;;35.47;27.37;;;;;;;-1.26;100.00;97878.16;4965505;28;20440;-68
2020/12/01 05:50:06;;;;;;;36.57;26.87;;;;;;;-1.25;100.00;97883.28;4955124;28;20476;-71
2020/12/01 05:52:43;;;;;;;35.80;24.83;;;;;;;-1.21;100.00;97879.56;4933766;28;20445;-71
2020/12/01 05:55:13;;;;;;;36.17;26.20;;;;;;;-1.31;100.00;97881.03;4972199;28;20717;-70
2020/12/01 05:57:40;;;;;;;34.97;26.57;;;;;;;-1.32;100.00;97880.19;4963593;28;20707;-70
2020/12/01 06:00:15;;;;;;;35.50;27.57;;;;;;;-1.21;100.00;97884.75;4967912;28;20589;-70
2020/12/01 06:02:48;;;;;;;35.93;26.20;;;;;;;-1.25;100.00;97882.41;4967595;28;20701;-70
2020/12/01 06:05:20;;;;;;;36.60;26.47;;;;;;;-1.25;100.00;97885.00;4971099;28;20836;-70
2020/12/01 06:07:49;;;;;;;39.03;26.97;;;;;;;-1.30;100.00;97885.31;4921554;28;20473;-71
2020/12/01 06:10:26;;;;;;;36.27;27.13;;;;;;;-1.33;100.00;97886.31;4970456;28;20201;-70
2020/12/01 06:13:15;;;;;;;33.83;26.23;;;;;;;-1.34;100.00;97879.44;4952991;28;20476;-70
2020/12/01 06:15:55;;;;;;;38.70;28.43;;;;;;;-1.23;100.00;97885.75;4959601;28;20249;-70
2020/12/01 06:18:31;;;;;;;35.13;28.60;;;;;;;-1.25;100.00;97877.22;4969903;28;20449;-70
2020/12/01 06:21:05;;;;;;;32.30;27.60;;;;;;;-1.38;100.00;97877.97;4964627;28;20980;-70
2020/12/01 06:24:02;;;;;;;35.27;27.67;;;;;;;-1.38;100.00;97877.97;4922536;28;20456;-70
2020/12/01 06:26:48;;;;;;;45.03;29.33;;;;;;;-1.31;100.00;97876.66;4969690;28;20257;-71
2020/12/01 06:29:48;;;;;;;35.43;26.60;;;;;;;-1.31;100.00;97873.25;4967897;28;20457;-71
2020/12/01 06:32:42;;;;;;;35.50;27.23;;;;;;;-1.32;100.00;97871.56;4969041;28;20456;-70
2020/12/01 06:35:30;;;;;;;34.63;27.43;;;;;;;-1.38;100.00;97871.91;4966302;28;20622;-71
2020/12/01 06:38:15;;;;;;;37.37;27.30;;;;;;;-1.25;100.00;97878.06;4927508;28;22462;-70
2020/12/01 06:40:45;;;;;;;37.47;27.80;;;;;;;-1.23;100.00;97871.00;4951695;28;20453;-71
2020/12/01 06:43:15;;;;;;;36.13;27.50;;;;;;;-1.35;100.00;97869.97;4967082;28;20445;-71
2020/12/01 06:45:45;;;;;;;38.53;27.37;;;;;;;-1.27;100.00;97872.13;4962564;28;20472;-69
2020/12/01 06:48:14;;;;;;;32.40;25.30;;;;;;;-1.32;100.00;97868.97;4968616;28;21008;-71
2020/12/01 06:50:45;;;;;;;32.90;26.13;;;;;;;-1.27;100.00;97869.53;4963919;28;20455;-70
2020/12/01 06:53:12;;;;;;;33.30;25.57;;;;;;;-1.37;100.00;97873.59;4938299;28;20456;-70
2020/12/01 06:55:46;;;;;;;31.13;24.37;;;;;;;-1.38;100.00;97869.31;4957267;28;20484;-70
2020/12/01 06:58:18;;;;;;;38.33;26.70;;;;;;;-1.39;100.00;97868.50;4966545;28;20448;-70
2020/12/01 07:00:45;;;;;;;34.90;27.30;;;;;;;-1.51;100.00;97871.84;4966222;28;20457;-70
2020/12/01 07:03:12;;;;;;;36.30;28.50;;;;;;;-1.25;100.00;97866.81;4967051;28;20446;-70
2020/12/01 07:05:39;;;;;;;39.77;28.17;;;;;;;-1.42;100.00;97866.09;4969525;28;20464;-70
2020/12/01 07:08:14;;;;;;;35.17;26.13;;;;;;;-1.25;100.00;97867.66;4936435;28;22137;-71
2020/12/01 07:10:41;;;;;;;37.30;28.50;;;;;;;-1.36;100.00;97868.31;4950443;28;20448;-70
2020/12/01 07:13:12;;;;;;;37.87;27.87;;;;;;;-1.33;100.00;97864.66;4966320;28;20726;-71
2020/12/01 07:15:42;;;;;;;38.60;27.87;;;;;;;-1.26;100.00;97860.78;4969380;28;20484;-71
2020/12/01 07:18:16;;;;;;;39.33;28.27;;;;;;;-1.23;100.00;97868.41;4967132;28;20776;-70
2020/12/01 07:21:03;;;;;;;35.43;26.57;;;;;;;-1.32;100.00;97861.16;4965783;28;20205;-70
2020/12/01 07:23:36;;;;;;;37.37;26.53;;;;;;;-1.23;100.00;97863.22;4965165;28;20206;-71
2020/12/01 07:26:17;;;;;;;35.03;26.90;;;;;;;-1.18;100.00;97855.09;4929543;28;20737;-70
2020/12/01 07:28:55;;;;;;;40.07;28.53;;;;;;;-1.14;100.00;97859.19;4959054;28;20472;-70
2020/12/01 07:31:24;;;;;;;35.57;27.90;;;;;;;-1.11;100.00;97858.19;4972023;28;20997;-71
2020/12/01 07:33:55;;;;;;;37.10;27.93;;;;;;;-1.09;100.00;97848.50;4964809;28;20461;-72
2020/12/01 07:36:34;;;;;;;32.50;26.67;;;;;;;-1.14;100.00;97856.59;4972799;28;20476;-72
2020/12/01 07:39:16;;;;;;;33.17;25.37;;;;;;;-1.19;100.00;97851.69;4961531;28;20451;-71
2020/12/01 07:41:53;;;;;;;37.73;27.07;;;;;;;-1.17;100.00;97851.56;4931577;28;20415;-69
2020/12/01 07:44:22;;;;;;;36.63;27.70;;;;;;;-1.08;100.00;97850.19;4963007;28;20461;-71
2020/12/01 07:47:01;;;;;;;34.97;26.20;;;;;;;-1.06;100.00;97845.72;4970952;28;20992;-70
2020/12/01 07:49:31;;;;;;;31.70;24.67;;;;;;;-1.02;100.00;97850.66;4971948;28;20445;-71
2020/12/01 07:52:06;;;;;;;32.67;25.93;;;;;;;-0.98;100.00;97853.88;4971410;28;20656;-71
2020/12/01 07:54:37;;;;;;;37.13;26.80;;;;;;;-1.10;100.00;97855.50;4965928;28;21816;-70
2020/12/01 07:57:12;;;;;;;36.43;26.60;;;;;;;-1.04;100.00;97857.72;4950634;28;20590;-71
2020/12/01 07:59:44;;;;;;;34.70;25.13;;;;;;;-0.98;100.00;97856.47;4968991;28;20208;-71
2020/12/01 08:02:12;;;;;;;32.03;25.30;;;;;;;-1.01;100.00;97861.88;4975496;28;20499;-71
2020/12/01 08:04:39;;;;;;;34.17;24.87;;;;;;;-1.04;100.00;97862.06;4967635;28;20226;-70
2020/12/01 08:07:14;;;;;;;31.37;25.83;;;;;;;-0.93;100.00;97858.81;4973122;28;20554;-71
2020/12/01 08:09:41;;;;;;;28.80;24.53;;;;;;;-0.97;100.00;97860.75;4966282;28;20221;-72
2020/12/01 08:12:13;;;;;;;33.17;24.97;;;;;;;-0.89;100.00;97868.09;4930272;28;20733;-70
2020/12/01 08:14:49;;;;;;;32.27;24.83;;;;;;;-0.97;100.00;97860.75;4970340;28;20226;-71
2020/12/01 08:17:22;;;;;;;32.03;24.87;;;;;;;-0.95;100.00;97865.88;4971615;28;20452;-72
2020/12/01 08:19:50;;;;;;;33.67;25.17;;;;;;;-0.92;100.00;97863.09;4964650;28;20445;-71
2020/12/01 08:22:20;;;;;;;33.73;25.27;;;;;;;-0.92;100.00;97863.94;4965856;28;20576;-70
2020/12/01 08:24:47;;;;;;;33.97;26.63;;;;;;;-0.90;100.00;97869.03;4968545;28;20468;-70
2020/12/01 08:27:18;;;;;;;29.50;22.80;;;;;;;-0.97;100.00;97863.34;4933301;28;20460;-70
2020/12/01 08:29:45;;;;;;;31.70;23.97;;;;;;;-0.85;100.00;97866.97;4967020;28;20461;-71
2020/12/01 08:32:22;;;;;;;31.83;25.37;;;;;;;-0.88;100.00;97864.56;4968963;28;20456;-71
2020/12/01 08:34:54;;;;;;;31.47;23.47;;;;;;;-0.87;100.00;97861.03;4971041;28;20237;-71
2020/12/01 08:37:32;;;;;;;31.17;23.70;;;;;;;-0.83;100.00;97864.28;4970356;28;20965;-71
2020/12/01 08:40:13;;;;;;;31.57;24.97;;;;;;;-0.71;100.00;97860.91;4974680;28;20291;-76
2020/12/01 08:42:48;;;;;;;29.63;23.53;;;;;;;-0.83;100.00;97859.91;4948911;28;20213;-72
2020/12/01 08:45:44;;;;;;;27.07;21.87;;;;;;;-0.73;100.00;97858.44;4967954;28;20483;-72
2020/12/01 08:48:25;;;;;;;30.83;23.17;;;;;;;-0.75;100.00;97860.28;4964441;28;20511;-73
2020/12/01 08:51:18;;;;;;;32.13;25.03;;;;;;;-0.77;100.00;97861.31;4964925;28;20206;-71
2020/12/01 08:54:02;;;;;;;31.20;24.67;;;;;;;-0.70;100.00;97866.97;4970514;28;20722;-74
2020/12/01 08:56:39;;;;;;;30.70;25.10;;;;;;;-0.55;100.00;97862.56;4969833;28;20495;-74
2020/12/01 08:59:07;;;;;;;30.33;23.90;;;;;;;-0.41;100.00;97865.13;4929146;28;20415;-74
2020/12/01 09:01:41;;;;;;;31.33;24.93;;;;;;;-0.45;100.00;97866.25;4969974;28;20210;-73
2020/12/01 09:04:20;;;;;;;35.13;26.33;;;;;;;-0.41;100.00;97864.25;4975116;28;20460;-73
2020/12/01 09:06:47;;;;;;;34.50;25.20;;;;;;;-0.43;100.00;97867.00;4964213;28;20682;-71
2020/12/01 09:09:29;;;;;;;30.07;24.37;;;;;;;-0.30;100.00;97870.47;4976217;28;20465;-73
2020/12/01 09:12:08;;;;;;;32.23;25.97;;;;;;;-0.22;100.00;97862.16;4967344;28;20210;-72
2020/12/01 09:14:50;;;;;;;28.20;23.23;;;;;;;-0.19;100.00;97871.53;4939883;28;20237;-70
2020/12/01 09:17:24;;;;;;;32.33;24.87;;;;;;;-0.07;100.00;97873.38;4965205;28;20265;-72
2020/12/01 09:20:08;;;;;;;28.63;22.50;;;;;;;-0.10;100.00;97876.16;4966483;28;20219;-71
2020/12/01 09:22:36;;;;;;;27.23;22.93;;;;;;;-0.20;100.00;97881.13;4972097;28;20801;-71
2020/12/01 09:25:16;;;;;;;31.03;23.07;;;;;;;-0.19;100.00;97871.53;4969988;28;20244;-72
2020/12/01 09:27:45;;;;;;;28.43;22.40;;;;;;;-0.21;100.00;97863.84;4970563;28;20441;-71
2020/12/01 09:30:37;;;;;;;31.47;24.07;;;;;;;-0.19;100.00;97856.75;4941407;28;21415;-73
2020/12/01 09:33:06;;;;;;;29.03;23.20;;;;;;;-0.09;100.00;97866.56;4960838;28;20683;-73
2020/12/01 09:35:34;;;;;;;31.13;24.27;;;;;;;-0.15;100.00;97871.25;4969263;28;20234;-73
2020/12/01 09:38:01;;;;;;;30.80;25.33;;;;;;;-0.08;100.00;97870.84;4965808;28;20537;-74
2020/12/01 09:40:31;;;;;;;31.87;23.67;;;;;;;-0.12;100.00;97874.59;4972519;28;20220;-74
2020/12/01 09:43:01;;;;;;;29.83;23.83;;;;;;;-0.29;100.00;97873.91;4971687;28;20434;-73
2020/12/01 09:45:29;;;;;;;28.77;22.20;;;;;;;-0.23;100.00;97873.53;4969162;28;20293;-74
2020/12/01 09:48:00;;;;;;;31.93;23.10;;;;;;;-0.21;100.00;97873.41;4929710;28;20264;-74
2020/12/01 09:50:30;;;;;;;29.70;23.73;;;;;;;-0.25;100.00;97871.94;4972186;28;20277;-73
2020/12/01 10:09:52;;;;;;;27.40;22.73;;;;;;;0.04;100.00;97871.81;4967544;28;21031;-73
2020/12/01 10:12:33;;;;;;;29.47;23.63;;;;;;;0.10;100.00;97874.03;4970792;28;20213;-73
2020/12/01 10:26:53;;;;;;;30.33;26.07;;;;;;;0.29;100.00;97855.38;4971670;28;20205;-73
2020/12/01 10:35:00;;;;;;;30.87;24.50;;;;;;;0.33;100.00;97866.47;4915054;28;20756;-72
2020/12/01 10:37:41;;;;;;;29.70;23.50;;;;;;;0.41;100.00;97858.94;4970195;28;20222;-72
2020/12/01 10:40:09;;;;;;;33.37;24.97;;;;;;;0.64;100.00;97867.00;4969469;28;20209;-73
2020/12/01 10:42:37;;;;;;;29.70;23.57;;;;;;;0.80;100.00;97867.63;4960576;28;20206;-73
2020/12/01 10:45:04;;;;;;;28.17;21.93;;;;;;;0.82;100.00;97868.34;4965746;28;20399;-73
2020/12/01 10:47:31;;;;;;;27.53;21.53;;;;;;;0.98;100.00;97862.91;4965666;28;20218;-73
2020/12/01 10:49:58;;;;;;;27.97;22.03;;;;;;;1.06;100.00;97864.13;4931109;28;21089;-72
2020/12/01 10:52:25;;;;;;;26.93;21.23;;;;;;;1.17;100.00;97863.38;4968494;28;21093;-73
2020/12/01 10:54:52;;;;;;;25.87;20.43;;;;;;;1.13;100.00;97860.16;4965772;28;20241;-73
2020/12/01 10:57:19;;;;;;;25.97;21.97;;;;;;;1.09;100.00;97863.91;4968848;28;20213;-73
2020/12/01 10:59:47;;;;;;;29.50;22.43;;;;;;;0.98;100.00;97862.09;4971148;28;20221;-73
2020/12/01 11:02:14;;;;;;;27.83;20.63;;;;;;;0.86;100.00;97875.00;4972498;28;20202;-73
2020/12/01 11:04:41;;;;;;;24.70;21.43;;;;;;;0.64;100.00;97865.22;4933020;28;20244;-72
2020/12/01 11:07:11;;;;;;;25.43;21.33;;;;;;;0.96;100.00;97869.19;4966761;28;20446;-73
2020/12/01 11:09:37;;;;;;;24.97;20.90;;;;;;;0.95;100.00;97865.72;4966024;28;20214;-72
2020/12/01 11:12:04;;;;;;;29.17;22.97;;;;;;;0.84;100.00;97876.06;4968521;28;20205;-75
2020/12/01 11:14:31;;;;;;;27.33;22.20;;;;;;;0.91;100.00;97872.09;4970621;28;20236;-74
2020/12/01 11:17:00;;;;;;;24.53;20.27;;;;;;;0.86;100.00;97876.81;4966516;28;20986;-73
2020/12/01 11:19:27;;;;;;;24.87;21.83;;;;;;;0.88;100.00;97879.28;4930253;28;20233;-74
2020/12/01 11:21:54;;;;;;;25.10;21.80;;;;;;;1.01;100.00;97880.13;4960683;28;20259;-73
2020/12/01 11:24:21;;;;;;;22.87;19.90;;;;;;;0.94;100.00;97884.94;4970972;28;20317;-74
2020/12/01 11:26:48;;;;;;;25.23;21.30;;;;;;;0.77;100.00;97883.47;4964772;28;20204;-73
2020/12/01 11:29:15;;;;;;;25.83;21.30;;;;;;;0.74;100.00;97881.09;4963696;28;20675;-74
2020/12/01 11:31:43;;;;;;;26.87;22.80;;;;;;;0.74;100.00;97878.47;4967719;28;20245;-71
2020/12/01 11:34:13;;;;;;;27.33;22.50;;;;;;;0.72;100.00;97882.97;4935206;28;20839;-74
2020/12/01 11:36:40;;;;;;;28.77;22.70;;;;;;;0.63;100.00;97875.78;4962908;28;20488;-72
2020/12/01 11:39:09;;;;;;;24.47;21.43;;;;;;;0.60;100.00;97881.19;4965259;28;20410;-74
2020/12/01 11:41:37;;;;;;;24.40;21.53;;;;;;;0.74;100.00;97882.84;4972668;28;20728;-74
2020/12/01 11:44:05;;;;;;;27.70;21.97;;;;;;;0.75;100.00;97887.13;4964489;28;20746;-74
2020/12/01 11:46:32;;;;;;;24.97;20.70;;;;;;;0.74;100.00;97875.00;4963161;28;20233;-74
2020/12/01 11:49:01;;;;;;;29.10;23.77;;;;;;;0.71;100.00;97881.28;4966660;28;20428;-74
2020/12/01 11:51:35;;;;;;;27.20;22.37;;;;;;;0.53;100.00;97878.97;4932823;28;20636;-74
2020/12/01 11:54:03;;;;;;;27.97;21.47;;;;;;;0.38;100.00;97885.22;4958251;28;20883;-75
2020/12/01 11:56:30;;;;;;;25.70;21.83;;;;;;;0.43;100.00;97877.94;4967542;28;20229;-75
2020/12/01 11:58:58;;;;;;;29.13;21.67;;;;;;;0.61;100.00;97885.47;4969249;28;20209;-74
2020/12/01 12:01:25;;;;;;;26.17;21.70;;;;;;;0.63;100.00;97880.97;4967905;28;20671;-74
2020/12/01 12:03:52;;;;;;;26.23;21.73;;;;;;;1.04;100.00;97885.13;4969273;28;20282;-74